Pagrindinis puslapis
METAR-TAF:

METAR-TAF

Oro uostai :

Comiso, Italija

platuma: 36-59-30N, ilguma: 14-36-25E, Aukštis: 190 m

Dabartinis oras

Ataskaita buvo paskelbta 39 minutes, ne 21:50 UTC
Vėjas 2 kt iš Rytų
Temperatūra 7°C
Drėgmė 93%
Slėgis 1023 hPa
Matomumas 10 km arba daugiau
nėra debesų žemiau 1500 m ir nėra kamuolinių lietaus debesų

METAR: LICB 272150Z 10002KT CAVOK 07/06 Q1023

Laikas: 23:29 (22:29 UTC)

Prognozė

Ataskaita buvo paskelbta 2 valandos ir 29 minutes, ne 20:00 UTC
Prognozė galioja nuo 27 metu 21 UTC su 28 metu 06 UTC
Vėjas 7 kt iš Vakarų/Pietvakarių
Matomumas 10 km arba daugiau
Išsisklaidę debesys ne aukštis 2000 ft

TAF: LICB 272000Z 2721/2806 25007KT 9999 SCT020

Orai ataskaitas ir orų prognozės (METAR, TAF).

turimą stotys yra geltonos ir raudonos taškus žemėlapyje.

Perkelti pele per norėdami pamatyti stoties vardą.

Tada spustelėkite, norėdami matyti oro stebėjimo ir prognozės.

Norėdami pakeisti žemėlapį: spustelėkite ant žalios mygtukų su juodo kryžiaus žemyn,; žalią mygtuką su brūkšneliu, jei norite nutolinti; arba žalių rodyklių gretimoms žemėlapius.


METAR-TAF: